Share

Al Asad, Iraq

Baghdad (KQTZ) Elev 112 ft | 33.25 °N, 44.23 °E | Change Station

Current weather conditions updated 29 minutes ago

Cloudy
Cloudy
86 °F
Feels Like 86 °F
N
10
Wind Variable Wind from NNW
Gusts 20 mph
Sunrise 5:26 AM
Sunset 6:36 PM
Moon Waning Gibbous

Tomorrow is forecast to be Much Warmer than today.

Pressure 29.89 in
Visibility -9999.0 miles
Clouds Few 3500 ft
Few 12000 ft
Mostly Cloudy 15000 ft
Overcast 20000 ft
Dew Point 41 °F
Humidity 20%
Rainfall 0.00 in
Snow Depth Not available.
UV 0 out of 16
Pollen Not available.
Air Quality Not available.
Flu Activity Not available.
METAR KQTZ 201555Z 34009G17KT 3200 BLDU FEW035 FEW120 BKN150 OVC200 30/05 A2990 RMK SLP121 WND DATA ESTMD ALSTG/SLP ESTMD

More Conditions Fewer Conditions

Pressure 29.89 in
Visibility -9999.0 miles
Clouds Few 3500 ft
Few 12000 ft
Mostly Cloudy 15000 ft
Overcast 20000 ft
Dew Point 41 °F
Humidity 20%
Rainfall 0.00 in
Snow Depth Not available.
UV 0 out of 16
Pollen Not available.
Air Quality Not available.
Flu Activity Not available.
METAR KQTZ 201555Z 34009G17KT 3200 BLDU FEW035 FEW120 BKN150 OVC200 30/05 A2990 RMK SLP121 WND DATA ESTMD ALSTG/SLP ESTMD

More Conditions Fewer Conditions

10-Day Weather Forecast

Almanac

Astronomy

Apr. 20, 2014 Rise Set
Actual Time 5:26 AM AST 6:36 PM AST
Civil Twilight 5:00 AM AST 7:02 PM AST
Nautical Twilight 4:29 AM AST 7:33 PM AST
Astronomical Twilight 3:57 AM AST 8:05 PM AST
Moon 11:44 PM AST 9:28 AM AST
Length of Visible Light 14h 02m
Length of Day
13h 10m
Tomorrow will be 1m 57s longer.
Waning Gibbous, 68% of the Moon is Illuminated
Today
Waning Gibbous
Apr 22
Last Quarter
Apr 29
New
May 6
First Quarter
May 14
Full

Today's Extremes

Country Highs Country Lows

Community

  • Columbine
    Columbine
  • Easter Sunrise
    Easter Sunrise
  • Easter Eve - The Promise - Lake Palestine, TX
    Easter Eve - The Promise - Lake Palestine, TX
  • Happy Easter
    Happy Easter
  • EARLY FOGGY MORNING
    EARLY FOGGY MORNING

WunderPhotos

Upload Photos

1,703,268 photos uploaded!

WunderBlogs® & News

Nearby

Snow Depth

Not available.

Coastal Water Temperatures

Place Temperature
No Stations Reporting

Earthquake Activity

City Distance Mag. Time & Date
No recent earthquake activity has been reported nearby.
Minimum magnitude displayed is 2.5.

Nearby Weather Stations

There are no personal weather stations in this area.

What do you think?

We're not finished. Please let us know what you like, what you don't like, and what you are still missing.